Flight Track Log - Related Links

Times and Time Zones

All times are in EDT time to prevent confusion due to time zone crossing. See the CPT8773 flight status page for this flight to view local times or setup timezone preferences in your user account.

Time Position Orientation Groundspeed Altitude Reporting Facility
EDT Latitude Longitude Course Direction KTS MPH feet Rate Location/Type
Tue 09:25:11 AM 42.9719 -106.5122 312° West 95 109 7,800  Level Salt Lake Center
Tue 09:26:05 AM 42.9919 -106.5217 341° North 95 109 8,300 567 Climbing Denver Center
Tue 09:27:18 AM 43.0189 -106.5317 345° North 95 109 9,000 627 Climbing Denver Center
Tue 09:28:00 AM 43.0319 -106.6532 312° West  Level Estimated
Tue 09:28:19 AM 43.0494 -106.5478 339° North 96 110 9,700  Level Denver Center
Tue 09:29:00 AM 43.0566 -106.6911 312° West  Level Estimated
Tue 09:29:20 AM 43.0792 -106.5633 339° North 97 112 10,400  Level Denver Center
Tue 09:30:00 AM 43.0814 -106.7290 312° West  Level Estimated
Tue 09:30:33 AM 43.1083 -106.5792 338° Northwest 98 113 11,100  Level Denver Center
Tue 09:31:34 AM 43.1336 -106.5939 337° Northwest 96 110 11,800 443 Climbing Denver Center
Tue 09:32:35 AM 43.1567 -106.6050 341° North 95 109 12,000 146 Climbing Denver Center
Tue 09:33:37 AM 43.1828 -106.6178 340° North 99 114 12,100 56 Climbing Denver Center
Tue 09:34:22 AM 43.2033 -106.6333 331° Northwest 103 119 12,100  Level Salt Lake Center
Tue 09:35:23 AM 43.2303 -106.6461 341° North 104 120 12,100 49 Level Salt Lake Center
Tue 09:36:24 AM 43.2586 -106.6617 338° Northwest 103 119 12,200  Climbing Salt Lake Center
Tue 09:37:25 AM 43.2844 -106.6761 338° Northwest 103 119 12,100 -49 Descending Salt Lake Center
Tue 09:38:26 AM 43.3108 -106.6931 335° Northwest 107 123 12,100  Level Salt Lake Center
Tue 09:39:27 AM 43.3308 -106.7367 302° West 116 133 12,100 49 Level Salt Lake Center
Tue 09:40:29 AM 43.3475 -106.7719 303° West 116 133 12,200  Climbing Salt Lake Center
Tue 09:41:30 AM 43.3711 -106.8133 308° West 118 136 12,100 -49 Descending Salt Lake Center
Tue 09:42:31 AM 43.3917 -106.8528 306° West 127 146 12,100  Level Salt Lake Center
Tue 09:43:32 AM 43.4133 -106.8931 307° West 133 153 12,100  Level Salt Lake Center
Tue 09:44:33 AM 43.4372 -106.9367 307° West 133 153 12,100  Level Salt Lake Center
Tue 09:45:35 AM 43.4586 -106.9783 305° West 133 153 12,100 -49 Level Salt Lake Center
Tue 09:46:36 AM 43.4786 -107.0164 306° West 130 150 12,000  Descending Salt Lake Center
Tue 09:47:37 AM 43.4953 -107.0492 305° West 111 128 12,100 49 Climbing Salt Lake Center
Tue 09:48:38 AM 43.5097 -107.0817 302° West 102 117 12,100  Level Salt Lake Center
Tue 09:49:40 AM 43.5231 -107.1117 302° West 97 112 12,100  Level Salt Lake Center
Tue 09:50:41 AM 43.5397 -107.1369 312° West 94 108 12,100  Level Salt Lake Center
Tue 09:51:42 AM 43.5575 -107.1731 304° West 94 108 12,100  Level Salt Lake Center
Tue 09:52:43 AM 43.5761 -107.2031 311° West 96 110 12,100  Level Salt Lake Center
Tue 09:53:45 AM 43.5917 -107.2331 306° West 97 112 12,100  Level Salt Lake Center
Tue 09:54:46 AM 43.6092 -107.2658 306° West 99 114 12,100  Level Salt Lake Center
Tue 09:55:47 AM 43.6286 -107.2997 308° West 105 121 12,100  Level Salt Lake Center
Tue 09:56:48 AM 43.6458 -107.3331 306° West 106 122 12,100  Level Salt Lake Center
Tue 09:57:50 AM 43.6619 -107.3697 301° West 106 122 12,100  Level Salt Lake Center
Tue 09:58:51 AM 43.6786 -107.4047 303° West 106 122 12,100  Level Salt Lake Center
Tue 09:59:52 AM 43.6981 -107.4406 307° West 110 127 12,100  Level Salt Lake Center
Tue 10:00:54 AM 43.7239 -107.4831 310° West 115 132 12,100  Level Salt Lake Center
Tue 10:01:55 AM 43.7447 -107.5244 305° West 122 140 12,100  Level Salt Lake Center
Tue 10:02:57 AM 43.7642 -107.5647 304° West 123 142 12,100  Level Salt Lake Center
Tue 10:03:58 AM 43.7839 -107.6031 305° West 123 142 12,100  Level Salt Lake Center
Tue 10:04:59 AM 43.7997 -107.6397 301° West 120 138 12,100  Level Salt Lake Center
Tue 10:06:01 AM 43.8158 -107.6753 302° West 115 132 12,100  Level Salt Lake Center
Tue 10:07:02 AM 43.8333 -107.7069 307° West 112 129 12,100  Level Salt Lake Center
Tue 10:08:04 AM 43.8533 -107.7428 308° West 112 129 12,100  Level Salt Lake Center
Tue 10:09:05 AM 43.8736 -107.7786 308° West 113 130 12,100  Level Salt Lake Center
Tue 10:10:06 AM 43.8978 -107.8244 306° West 115 132 12,100  Level Salt Lake Center
Tue 10:11:08 AM 43.9178 -107.8636 305° West 120 138 12,100  Level Salt Lake Center
Tue 10:12:09 AM 43.9361 -107.9022 303° West 120 138 12,100  Level Salt Lake Center
Tue 10:13:11 AM 43.9544 -107.9414 303° West 120 138 12,100  Level Salt Lake Center
Tue 10:14:13 AM 43.9775 -107.9778 311° West 120 138 12,100  Level Salt Lake Center
Tue 10:15:14 AM 44.0025 -108.0119 315° West 121 139 12,100 -49 Level Salt Lake Center
Tue 10:16:16 AM 44.0253 -108.0483 311° West 122 140 12,000 -49 Descending Salt Lake Center
Tue 10:17:17 AM 44.0453 -108.0858 307° West 122 140 12,000  Level Salt Lake Center
Tue 10:18:19 AM 44.0664 -108.1297 304° West 121 139 12,000  Level Salt Lake Center
Tue 10:19:20 AM 44.0850 -108.1658 306° West 119 137 12,000  Level Salt Lake Center
Tue 10:20:22 AM 44.1028 -108.2014 305° West 117 135 12,000  Level Salt Lake Center
Tue 10:21:24 AM 44.1200 -108.2381 303° West 116 133 12,000  Level Salt Lake Center
Tue 10:22:25 AM 44.1389 -108.2736 307° West 116 133 12,000  Level Salt Lake Center
Tue 10:23:27 AM 44.1583 -108.3111 306° West 116 133 12,000  Level Salt Lake Center
Tue 10:24:29 AM 44.1781 -108.3497 305° West 116 133 12,000  Level Salt Lake Center
Tue 10:25:30 AM 44.1978 -108.3881 306° West 117 135 12,000  Level Salt Lake Center
Tue 10:26:32 AM 44.2200 -108.4331 305° West 117 135 12,000  Level Salt Lake Center
Tue 10:27:34 AM 44.2397 -108.4700 307° West 117 135 12,000  Level Salt Lake Center
Tue 10:28:35 AM 44.2597 -108.5086 306° West 117 135 12,000  Level Salt Lake Center
Tue 10:29:37 AM 44.2800 -108.5483 305° West 119 137 12,000 -97 Level Salt Lake Center
Tue 10:30:39 AM 44.2992 -108.5869 305° West 120 138 11,800 -532 Descending Salt Lake Center
Tue 10:31:41 AM 44.3208 -108.6281 306° West 121 139 10,900 -774 Descending Salt Lake Center
Tue 10:32:43 AM 44.3450 -108.6747 306° West 133 153 10,200 -677 Descending Salt Lake Center

Login

Don't have an account? Register now (free) for customized features, flight alerts, and more!